EDT,Max TemperatureF,Mean TemperatureF,Min TemperatureF,Max Dew PointF,MeanDew PointF,Min DewpointF,Max Humidity, Mean Humidity, Min Humidity, Max Sea Level PressureIn, Mean Sea Level PressureIn, Min Sea Level PressureIn, Max VisibilityMiles, Mean VisibilityMiles, Min VisibilityMiles, Max Wind SpeedMPH, Mean Wind SpeedMPH, Max Gust SpeedMPH,PrecipitationIn, CloudCover, Events, WindDirDegrees
2013-7-1,79,72,66,67,65,64,100,83,64,29.97,29.90,29.82,10,7,1,8,3,,0.18,6,Rain,29
2013-7-2,84,74,66,68,67,65,100,83,58,30.07,30.01,29.95,10,7,0,12,3,16,0.14,4,Fog-Rain,163
2013-7-3,86,78,71,68,66,64,82,70,53,30.19,30.14,30.07,10,10,10,15,7,22,0.00,2,,174
2013-7-4,86,77,70,70,67,65,93,75,53,30.24,30.18,30.14,10,9,2,17,5,23,0.25,4,Rain,176
2013-7-5,86,76,69,70,68,66,96,81,56,30.19,30.16,30.12,10,6,0,15,6,22,0.02,2,Fog-Rain,191
2013-7-6,89,78,70,70,69,66,93,72,51,30.19,30.13,30.04,10,10,3,15,6,,0.06,2,Rain,204
2013-7-7,77,72,70,70,67,65,94,82,71,30.13,30.10,30.03,10,10,5,13,8,,0.10,5,Rain,218
2013-7-8,82,74,66,68,65,61,94,74,54,30.14,30.10,30.06,10,10,6,12,7,17,0.04,4,,230
2013-7-9,82,75,68,73,68,64,100,89,74,30.14,30.08,29.99,10,5,1,13,8,26,1.38,7,Rain,198
2013-7-10,86,76,66,76,69,64,100,92,69,30.04,29.97,29.84,10,6,0,25,8,55,2.19,6,Fog-Rain-Thunderstorm,200
2013-7-11,77,70,64,65,61,55,100,79,54,30.01,29.97,29.91,10,9,6,8,4,,0.00,6,,328
2013-7-12,75,67,59,64,60,55,90,77,64,30.12,30.06,30.01,10,10,9,8,5,,0.03,4,Rain,7
2013-7-13,82,73,64,67,64,60,90,72,58,30.25,30.18,30.11,10,10,10,9,4,,0.00,4,,73
2013-7-14,88,80,71,68,66,65,87,63,48,30.31,30.27,30.23,10,10,10,13,7,,0.00,1,,160
2013-7-15,90,80,71,75,68,66,90,64,49,30.35,30.30,30.26,10,10,7,8,5,,0.00,1,,209
2013-7-16,91,80,71,75,71,68,100,82,54,30.34,30.30,30.27,10,7,1,17,3,30,0.83,3,Rain-Thunderstorm,250
2013-7-17,88,78,69,75,72,70,100,92,65,30.33,30.27,30.19,10,3,0,9,2,,0.01,3,Fog-Rain-Thunderstorm,177
2013-7-18,90,80,71,75,73,70,100,87,52,30.21,30.15,30.04,10,5,0,9,4,,0.01,2,Fog,183
2013-7-19,90,80,72,74,71,66,97,78,55,30.05,29.98,29.90,10,7,0,15,8,32,0.33,2,Rain-Thunderstorm,213
2013-7-20,80,74,69,71,68,66,94,84,69,29.95,29.91,29.87,10,8,1,15,8,25,0.11,4,Rain,226
2013-7-21,82,74,68,70,68,64,96,87,65,30.00,29.96,29.92,10,8,2,13,4,16,0.12,5,Rain-Thunderstorm,170
2013-7-22,80,71,64,72,68,64,100,94,76,29.98,29.88,29.80,10,4,0,12,2,21,0.87,4,Fog-Rain-Thunderstorm,149
2013-7-23,82,72,62,68,65,63,100,88,52,29.80,29.77,29.73,10,6,1,17,7,48,0.31,6,Rain,258
2013-7-24,72,66,60,64,57,51,100,77,53,30.01,29.88,29.77,10,10,6,10,5,18,0.00,5,,336
2013-7-25,75,64,54,52,51,49,90,63,41,30.10,30.06,30.01,10,10,10,8,4,,0.00,0,,11
2013-7-26,78,66,55,59,55,52,96,65,40,30.12,30.07,30.01,10,9,5,8,2,,0.00,0,,160
2013-7-27,72,66,62,67,63,57,100,90,75,30.01,29.94,29.88,10,6,0,10,5,,0.95,6,Fog-Rain-Thunderstorm,162
2013-7-28,75,68,62,65,60,52,100,82,50,30.05,29.94,29.87,10,8,2,12,7,22,0.15,5,Rain-Thunderstorm,211
2013-7-29,73,64,55,54,52,51,86,65,48,30.21,30.13,30.06,10,10,10,13,6,22,0.00,2,,236
2013-7-30,75,66,57,57,55,52,90,63,50,30.26,30.21,30.17,10,10,10,8,3,,0.00,2,,257
2013-7-31,78,68,60,65,62,57,96,81,56,30.17,30.09,29.98,10,8,2,9,2,,0.03,4,Rain,181